Idaho Falls, ID

6:15 PM MST on November 22, 2014 (GMT -0700)
old Ammon | Change Station
CLOSE
Current Station
Personal Weather Station
Location: Ammon, ID
Elevation: 4718 ft
Nearby Weather Stations
Active Advisory: Wind Advisory Active Notice: Record Report, Local Storm Report

Elev 4718 ft 43.47 °N, 111.97 °W | Updated 26 seconds ago

Rain
Rain
35.2 °F
Feels Like 32 °F
N
4.0
Wind Variable Wind from SW
Gusts 12.0 mph

Today
High -- | Low -- °F
--% Chance of Precip.
Yesterday
High -- | Low -- °F
Precip. -- in
7:29 AM 4:56 PM
New Moon, 0% visible
Pressure 29.77 in
Visibility 10.0 miles
Clouds Mostly Cloudy 3200 ft
Windchill 32 °F
Dew Point 32 °F
Humidity 89%
Rainfall 0.09 in
Snow Depth Not available.
UV 0 out of 12
Pollen .10 out of 12
Air Quality Not available.
Flu Activity Not available.
METAR KIDA 230053Z 21008KT 10SM BKN032 02/01 A2973 RMK AO2 SLP080 T00170006

More Conditions Fewer Conditions

Pressure 29.77 in
Visibility 10.0 miles
Clouds Mostly Cloudy 3200 ft
Windchill 32 °F
Dew Point 32 °F
Humidity 89%
Rainfall 0.09 in
Snow Depth Not available.
UV 0 out of 12
Pollen .10 out of 12
Air Quality Not available.
Flu Activity Not available.
METAR KIDA 230053Z 21008KT 10SM BKN032 02/01 A2973 RMK AO2 SLP080 T00170006

More Conditions Fewer Conditions

10-Day Weather Forecast

Almanac

Astronomy

Nov. 22, 2014 Rise Set
Actual Time
Civil Twilight
Nautical Twilight
Astronomical Twilight
Moon
Length of Visible Light
Length of Day
Tomorrow will be .
, % of the Moon is Illuminated

Today's Extremes

State Highs State Lows

Community

WunderPhotos

Upload Photos

1,772,951 photos uploaded!

WunderBlogs® & News

Nearby

Air Quality

  Air Quality AQ Index Pollutant
Not available.

Snow Depth

Station Depth Elevation

Earthquake Activity

City Distance Mag. Time & Date
Minimum magnitude displayed is 2.5.

Coastal Water Temperatures

Place Temperature

Nearby Weather Stations